Time;durP1;ratioP1;P1;durP2;ratioP2;P2;SDS_P1;SDS_P2;PMS_P1;PMS_P2;Temp;Humidity;BMP_temperature;BMP_pressure;BME280_temperature;BME280_humidity;BME280_pressure;Samples;Min_cycle;Max_cycle;Signal;HPM_P1;HPM_P2
2023/11/14 00:02:08;;;;;;;22.33;4.28;;;;;;;15.35;62.09;100088.88;4987003;28;109078;-64
2023/11/14 00:04:36;;;;;;;26.98;3.90;;;;;;;15.35;62.26;100088.00;4973937;28;124661;-64
2023/11/14 00:07:05;;;;;;;25.65;4.45;;;;;;;15.35;62.32;100083.53;4973275;28;122866;-64
2023/11/14 00:09:33;;;;;;;31.58;4.93;;;;;;;15.35;62.10;100078.19;4976143;28;109782;-63
2023/11/14 00:12:00;;;;;;;27.67;3.97;;;;;;;15.35;62.47;100082.66;4992613;28;109324;-64
2023/11/14 00:14:28;;;;;;;23.77;4.32;;;;;;;15.34;62.36;100097.84;4984631;28;124855;-64
2023/11/14 00:16:55;;;;;;;29.38;4.03;;;;;;;15.34;62.40;100097.84;4973919;28;123969;-64
2023/11/14 00:19:22;;;;;;;25.27;4.32;;;;;;;15.32;62.55;100089.09;4984969;28;109608;-64
2023/11/14 00:21:50;;;;;;;26.33;4.75;;;;;;;15.32;62.59;100097.09;4975302;28;108941;-63
2023/11/14 00:24:17;;;;;;;25.05;4.15;;;;;;;15.31;62.50;100095.41;4972771;28;124676;-63
2023/11/14 00:26:45;;;;;;;31.10;4.35;;;;;;;15.30;62.78;100085.69;4980744;28;124000;-63
2023/11/14 00:29:12;;;;;;;29.20;4.43;;;;;;;15.31;62.64;100092.75;4988761;28;109985;-63
2023/11/14 00:31:40;;;;;;;30.77;4.53;;;;;;;15.28;62.84;100098.31;4983363;28;109563;-64
2023/11/14 00:34:08;;;;;;;26.17;4.05;;;;;;;15.27;63.14;100096.59;4971551;28;124667;-63
2023/11/14 00:36:36;;;;;;;22.25;3.55;;;;;;;15.27;63.14;100091.25;4972036;28;124004;-63
2023/11/14 00:39:04;;;;;;;27.85;4.32;;;;;;;15.24;62.97;100093.31;4973285;28;109388;-63
2023/11/14 00:41:31;;;;;;;27.08;4.38;;;;;;;15.22;63.11;100088.13;4973234;28;108093;-64
2023/11/14 00:43:58;;;;;;;27.15;5.10;;;;;;;15.20;63.29;100087.38;4980333;28;122887;-63
2023/11/14 00:46:25;;;;;;;28.58;4.43;;;;;;;15.20;63.14;100074.06;4979407;28;124105;-64
2023/11/14 00:48:53;;;;;;;24.15;4.00;;;;;;;15.20;63.35;100095.41;4987877;28;107771;-63
2023/11/14 00:51:21;;;;;;;27.67;3.92;;;;;;;15.21;63.51;100097.06;4986384;28;109233;-63
2023/11/14 00:53:51;;;;;;;30.48;5.03;;;;;;;15.22;63.42;100082.78;4988899;28;123207;-63
2023/11/14 00:56:18;;;;;;;35.38;4.80;;;;;;;15.22;63.34;100088.13;4987449;28;122763;-63
2023/11/14 00:58:45;;;;;;;25.88;3.75;;;;;;;15.23;63.53;100105.81;4988512;28;108344;-63
2023/11/14 01:01:13;;;;;;;28.40;4.47;;;;;;;15.23;63.31;100100.47;4992653;28;108567;-63
2023/11/14 01:03:41;;;;;;;24.25;4.13;;;;;;;15.22;63.50;100104.13;4985227;28;124042;-63
2023/11/14 01:06:09;;;;;;;25.85;4.15;;;;;;;15.22;63.33;100114.78;4981990;28;123671;-63
2023/11/14 01:08:36;;;;;;;33.38;4.97;;;;;;;15.21;63.55;100091.75;4978804;28;109175;-64
2023/11/14 01:11:04;;;;;;;28.35;4.53;;;;;;;15.18;63.79;100102.63;5005730;28;107368;-63
2023/11/14 01:13:31;;;;;;;30.73;4.57;;;;;;;15.17;63.74;100100.94;4986163;28;123022;-63
2023/11/14 01:15:58;;;;;;;30.23;4.55;;;;;;;15.14;63.70;100112.72;4986843;28;122944;-63
2023/11/14 01:18:26;;;;;;;24.30;4.68;;;;;;;15.11;64.01;100101.44;4983963;28;110613;-63
2023/11/14 01:20:54;;;;;;;27.60;4.40;;;;;;;15.11;63.99;100120.09;4972212;28;109127;-63
2023/11/14 01:23:21;;;;;;;21.85;4.22;;;;;;;15.11;64.25;100112.09;4985120;28;124146;-63
2023/11/14 01:25:50;;;;;;;23.92;4.78;;;;;;;15.09;64.02;100120.22;4981656;28;123642;-63
2023/11/14 01:28:18;;;;;;;24.55;4.47;;;;;;;15.08;64.17;100117.66;4973592;28;109213;-63
2023/11/14 01:30:45;;;;;;;27.38;4.45;;;;;;;15.07;64.26;100126.59;4988716;28;109181;-63
2023/11/14 01:33:12;;;;;;;27.92;4.45;;;;;;;15.09;64.11;100124.69;4985466;28;124752;-63
2023/11/14 01:35:40;;;;;;;29.13;4.70;;;;;;;15.08;64.10;100128.31;4977089;28;123881;-63
2023/11/14 01:38:08;;;;;;;26.83;4.45;;;;;;;15.08;64.27;100122.97;4979454;28;108744;-63
2023/11/14 01:40:35;;;;;;;26.65;4.03;;;;;;;15.07;64.25;100132.81;4974296;28;109274;-63
2023/11/14 01:43:03;;;;;;;32.63;4.82;;;;;;;15.08;64.17;100139.00;4985825;28;124613;-63
2023/11/14 01:45:31;;;;;;;29.77;4.60;;;;;;;15.08;64.28;100139.00;4973828;28;124959;-63
2023/11/14 01:47:58;;;;;;;28.10;4.75;;;;;;;15.07;64.38;100143.47;4988949;28;109274;-63
2023/11/14 01:50:26;;;;;;;31.67;4.35;;;;;;;15.07;64.40;100138.16;4982217;28;109236;-63
2023/11/14 01:52:56;;;;;;;23.70;4.63;;;;;;;15.07;64.42;100142.59;4990687;28;123702;-63
2023/11/14 01:55:25;;;;;;;28.92;3.88;;;;;;;15.06;64.42;100154.25;4986135;28;123464;-63
2023/11/14 01:57:54;;;;;;;27.52;4.18;;;;;;;15.05;64.31;100149.88;4983928;28;109171;-63
2023/11/14 02:00:22;;;;;;;27.00;4.20;;;;;;;15.03;64.55;100146.47;4990942;28;108124;-63
2023/11/14 02:02:49;;;;;;;23.50;3.95;;;;;;;15.01;64.63;100154.59;4976033;28;124396;-63
2023/11/14 02:05:19;;;;;;;31.58;4.07;;;;;;;14.99;64.71;100146.72;4984142;28;124014;-64
2023/11/14 02:07:47;;;;;;;33.65;4.90;;;;;;;14.95;64.77;100155.88;4977812;28;110545;-63
2023/11/14 02:10:15;;;;;;;18.35;4.03;;;;;;;14.94;64.76;100172.03;4972735;28;110059;-63
2023/11/14 02:12:43;;;;;;;26.35;4.15;;;;;;;14.92;64.95;100181.97;5000408;28;123280;-63
2023/11/14 02:15:11;;;;;;;30.65;4.43;;;;;;;14.89;65.04;100183.03;4978979;28;123119;-63
2023/11/14 02:17:42;;;;;;;24.17;3.92;;;;;;;14.88;65.23;100192.00;4982062;28;109550;-64
2023/11/14 02:20:10;;;;;;;33.53;4.47;;;;;;;14.86;65.24;100196.59;4972489;28;108428;-63
2023/11/14 02:22:38;;;;;;;33.03;4.55;;;;;;;14.83;65.40;100194.16;4971397;28;123771;-64
2023/11/14 02:25:07;;;;;;;26.70;4.20;;;;;;;14.81;65.28;100190.75;4976153;28;124394;-64
2023/11/14 02:27:36;;;;;;;23.88;4.18;;;;;;;14.79;65.25;100187.34;4984244;28;109863;-63
2023/11/14 02:30:04;;;;;;;26.48;4.20;;;;;;;14.78;65.40;100191.78;4984153;28;108936;-63
2023/11/14 02:32:32;;;;;;;34.67;4.35;;;;;;;14.76;65.54;100184.88;4984360;28;124000;-63
2023/11/14 02:34:59;;;;;;;35.22;4.78;;;;;;;14.74;65.43;100187.66;4996230;28;122949;-63
2023/11/14 02:37:26;;;;;;;30.77;4.22;;;;;;;14.72;65.57;100183.41;4970607;28;108159;-64
2023/11/14 02:39:56;;;;;;;32.35;4.65;;;;;;;14.72;65.58;100191.41;4972619;28;107909;-64
2023/11/14 02:42:23;;;;;;;34.55;4.10;;;;;;;14.70;65.53;100198.66;4977653;28;123880;-64
2023/11/14 02:44:51;;;;;;;30.83;4.57;;;;;;;14.68;65.61;100201.44;4996762;28;123726;-64
2023/11/14 02:47:18;;;;;;;30.25;3.88;;;;;;;14.67;65.58;100198.88;4985341;28;108983;-64
2023/11/14 02:50:18;;;;;;;30.75;4.43;;;;;;;14.64;65.82;100193.78;4987182;28;107940;-63
2023/11/14 02:52:46;;;;;;;24.80;3.58;;;;;;;14.63;65.88;100202.75;4975463;28;123812;-63
2023/11/14 02:55:13;;;;;;;29.38;4.82;;;;;;;14.63;65.95;100197.41;4983201;28;122887;-63
2023/11/14 02:57:40;;;;;;;23.48;3.80;;;;;;;14.63;65.99;100202.75;4985107;28;109167;-64
2023/11/14 03:00:15;;;;;;;30.77;4.15;;;;;;;14.61;66.14;100200.19;4984690;28;109095;-64
2023/11/14 03:02:43;;;;;;;28.17;4.18;;;;;;;14.62;66.07;100217.00;4990586;28;124099;-64
2023/11/14 03:05:12;;;;;;;25.17;4.13;;;;;;;14.60;66.11;100199.34;4977659;28;125295;-64
2023/11/14 03:07:40;;;;;;;24.90;4.65;;;;;;;14.61;65.98;100216.16;4972045;28;109278;-64
2023/11/14 03:10:08;;;;;;;26.45;4.05;;;;;;;14.61;66.21;100200.19;4985709;28;108859;-63
2023/11/14 03:12:35;;;;;;;26.88;4.70;;;;;;;14.60;66.27;100199.34;4971014;28;124261;-63
2023/11/14 03:15:04;;;;;;;25.45;3.72;;;;;;;14.62;66.13;100220.56;4972028;28;123039;-63
2023/11/14 03:17:32;;;;;;;31.17;4.10;;;;;;;14.62;66.26;100217.00;4981947;28;108886;-63
2023/11/14 03:19:59;;;;;;;28.02;4.18;;;;;;;14.63;66.12;100213.41;4989171;28;107959;-64
2023/11/14 03:22:27;;;;;;;38.20;4.55;;;;;;;14.63;66.25;100213.41;4979212;28;123384;-63
2023/11/14 03:24:54;;;;;;;29.48;4.63;;;;;;;14.64;66.20;100220.44;4971081;28;123149;-63
2023/11/14 03:27:22;;;;;;;28.05;4.03;;;;;;;14.64;66.31;100225.78;4969742;28;108545;-63
2023/11/14 03:29:49;;;;;;;26.23;3.95;;;;;;;14.64;66.26;100215.13;4975596;28;107822;-64
2023/11/14 03:32:16;;;;;;;29.48;4.63;;;;;;;14.64;66.52;100221.28;4978660;28;124187;-63
2023/11/14 03:34:44;;;;;;;29.80;4.22;;;;;;;14.65;66.25;100227.47;4989563;28;122541;-64
2023/11/14 03:37:11;;;;;;;23.10;3.90;;;;;;;14.64;66.30;100209.78;4984219;28;108124;-63
2023/11/14 03:39:42;;;;;;;27.10;4.10;;;;;;;14.63;66.46;100218.72;4986256;28;109818;-64
2023/11/14 03:42:09;;;;;;;24.10;3.63;;;;;;;14.63;66.45;100218.72;4976652;28;123097;-63
2023/11/14 03:44:36;;;;;;;22.33;3.60;;;;;;;14.64;66.40;100215.13;4988317;28;124677;-64
2023/11/14 03:47:05;;;;;;;29.98;4.53;;;;;;;14.64;66.47;100220.44;4984786;28;109414;-63
2023/11/14 03:49:32;;;;;;;24.73;4.05;;;;;;;14.63;66.45;100224.06;4983185;28;110291;-63
2023/11/14 03:52:00;;;;;;;25.92;3.90;;;;;;;14.63;66.61;100224.06;4982430;28;124281;-64
2023/11/14 03:54:27;;;;;;;21.52;3.72;;;;;;;14.63;66.47;100240.06;4980300;28;124074;-64
2023/11/14 03:56:55;;;;;;;20.25;4.00;;;;;;;14.62;66.54;100239.22;4988073;28;108937;-64
2023/11/14 03:59:22;;;;;;;27.02;4.15;;;;;;;14.62;66.48;100246.31;4975121;28;109160;-63
2023/11/14 04:01:50;;;;;;;27.45;4.38;;;;;;;14.60;66.53;100241.97;4973009;28;124430;-64
2023/11/14 04:04:18;;;;;;;21.35;3.80;;;;;;;14.60;66.67;100236.66;4974807;28;125351;-64
2023/11/14 04:06:45;;;;;;;19.17;2.78;;;;;;;14.59;66.73;100245.59;4988965;28;108447;-64
2023/11/14 04:09:12;;;;;;;23.98;4.10;;;;;;;14.59;66.71;100245.59;4983974;28;109822;-64
2023/11/14 04:11:49;;;;;;;23.23;3.75;;;;;;;14.58;66.76;100248.38;4992036;28;123816;-64
2023/11/14 04:14:17;;;;;;;23.77;4.15;;;;;;;14.58;66.99;100243.91;4973593;28;123094;-64
2023/11/14 04:16:44;;;;;;;26.27;3.97;;;;;;;14.58;66.64;100248.38;4973636;28;110113;-64
2023/11/14 04:19:11;;;;;;;25.35;3.60;;;;;;;14.58;66.75;100248.38;4983482;28;109018;-64
2023/11/14 04:21:39;;;;;;;27.77;4.32;;;;;;;14.57;66.89;100252.84;4990476;28;123280;-64
2023/11/14 04:24:06;;;;;;;26.67;3.97;;;;;;;14.57;66.87;100255.50;4979979;28;123885;-64
2023/11/14 04:26:34;;;;;;;24.98;3.80;;;;;;;14.58;66.93;100249.22;4981556;28;109417;-64
2023/11/14 04:29:01;;;;;;;27.75;3.90;;;;;;;14.58;67.00;100249.22;4982924;28;109218;-64
2023/11/14 04:31:28;;;;;;;22.42;3.67;;;;;;;14.58;66.89;100243.91;4980987;28;124044;-63
2023/11/14 04:33:56;;;;;;;21.58;3.70;;;;;;;14.58;66.87;100241.22;4986254;28;122751;-64
2023/11/14 04:36:23;;;;;;;23.60;3.90;;;;;;;14.58;66.80;100243.91;4980804;28;109298;-63
2023/11/14 04:38:51;;;;;;;34.70;4.28;;;;;;;14.58;66.96;100249.22;4980579;28;110487;-63
2023/11/14 04:41:18;;;;;;;25.83;3.90;;;;;;;14.59;66.96;100255.41;4987283;28;123988;-64
2023/11/14 04:43:45;;;;;;;35.00;4.38;;;;;;;14.58;66.92;100237.72;4984039;28;123989;-63
2023/11/14 04:46:13;;;;;;;31.77;4.18;;;;;;;14.57;67.13;100226.19;4988970;28;109325;-63
2023/11/14 04:48:42;;;;;;;32.88;4.13;;;;;;;14.58;66.93;100238.56;4982652;28;108983;-63
2023/11/14 04:51:10;;;;;;;31.27;4.05;;;;;;;14.58;67.03;100243.06;4986015;28;124106;-64
2023/11/14 04:53:38;;;;;;;29.58;3.78;;;;;;;14.58;67.18;100243.91;4979683;28;124295;-64
2023/11/14 04:56:05;;;;;;;24.17;3.88;;;;;;;14.57;67.31;100242.19;4988700;28;109433;-64
2023/11/14 04:58:33;;;;;;;28.20;4.15;;;;;;;14.57;67.09;100247.50;4987965;28;109333;-63
2023/11/14 05:01:03;;;;;;;28.42;3.92;;;;;;;14.57;67.25;100241.34;4983689;28;125085;-63
2023/11/14 05:03:30;;;;;;;24.77;3.92;;;;;;;14.55;67.07;100238.75;4985206;28;123846;-63
2023/11/14 05:05:59;;;;;;;22.17;3.65;;;;;;;14.56;67.27;100242.25;4973838;28;109139;-63
2023/11/14 05:08:26;;;;;;;34.22;4.53;;;;;;;14.55;67.07;100249.41;4974040;28;109656;-64
2023/11/14 05:10:53;;;;;;;25.02;4.13;;;;;;;14.53;67.20;100251.34;4971969;28;123767;-64
2023/11/14 05:13:21;;;;;;;30.55;4.22;;;;;;;14.54;67.12;100252.16;4969554;28;124132;-63
2023/11/14 05:15:48;;;;;;;26.40;4.10;;;;;;;14.54;67.25;100258.38;4972082;28;109248;-64
2023/11/14 05:18:16;;;;;;;28.05;4.05;;;;;;;14.56;67.18;100272.44;4974293;28;109813;-63
2023/11/14 05:20:43;;;;;;;25.17;3.60;;;;;;;14.56;67.23;100256.44;4984421;28;124488;-63
2023/11/14 05:23:10;;;;;;;29.88;4.18;;;;;;;14.58;67.36;100270.56;4984545;28;123645;-63
2023/11/14 05:25:39;;;;;;;26.05;4.25;;;;;;;14.59;67.24;100272.25;4978256;28;111013;-64
2023/11/14 05:28:07;;;;;;;30.15;4.35;;;;;;;14.62;67.18;100264.97;4984524;28;110339;-63
2023/11/14 05:30:35;;;;;;;29.55;4.50;;;;;;;14.64;67.23;100279.06;4989077;28;124100;-64
2023/11/14 05:33:03;;;;;;;30.92;4.05;;;;;;;14.67;67.14;100278.84;4988137;28;126117;-64
2023/11/14 05:35:30;;;;;;;28.88;4.22;;;;;;;14.69;67.42;100279.56;4989139;28;109215;-63
2023/11/14 05:37:57;;;;;;;27.80;4.10;;;;;;;14.71;67.16;100280.31;4990025;28;109012;-63
2023/11/14 05:40:25;;;;;;;30.45;4.30;;;;;;;14.73;67.04;100259.72;4973831;28;124791;-64
2023/11/14 05:42:52;;;;;;;28.15;4.45;;;;;;;14.74;67.15;100269.44;4979644;28;123204;-63
2023/11/14 05:45:20;;;;;;;22.58;3.90;;;;;;;14.74;67.06;100264.13;4987882;28;109580;-64
2023/11/14 05:47:48;;;;;;;25.15;4.40;;;;;;;14.75;67.02;100265.84;4978266;28;109460;-64
2023/11/14 05:50:16;;;;;;;28.77;4.22;;;;;;;14.76;66.90;100263.03;4987269;28;124068;-63
2023/11/14 05:52:43;;;;;;;26.35;3.80;;;;;;;14.76;66.84;100267.53;4979918;28;123885;-64
2023/11/14 05:55:11;;;;;;;30.15;4.95;;;;;;;14.77;66.74;100274.56;4981264;28;109816;-63
2023/11/14 05:57:38;;;;;;;24.42;3.85;;;;;;;14.78;66.88;100281.59;4976823;28;108984;-64
2023/11/14 06:00:06;;;;;;;24.55;4.13;;;;;;;14.79;66.67;100272.66;4981437;28;123526;-63
2023/11/14 06:02:39;;;;;;;21.83;4.03;;;;;;;14.81;66.59;100267.22;4979603;28;123920;-63
2023/11/14 06:05:08;;;;;;;22.48;4.10;;;;;;;14.80;66.71;100279.66;4982744;28;109346;-63
2023/11/14 06:07:35;;;;;;;24.45;4.00;;;;;;;14.82;66.69;100288.41;4978802;28;109089;-64
2023/11/14 06:10:03;;;;;;;26.35;4.13;;;;;;;14.82;66.69;100288.41;4983925;28;123035;-63
2023/11/14 06:12:31;;;;;;;27.08;3.70;;;;;;;14.83;66.69;100283.94;4977738;28;124265;-63
2023/11/14 06:14:59;;;;;;;29.25;4.45;;;;;;;14.82;66.61;100293.72;4973698;28;110982;-63
2023/11/14 06:17:26;;;;;;;35.17;4.68;;;;;;;14.83;66.44;100291.94;4983842;28;109814;-63
2023/11/14 06:19:54;;;;;;;24.67;3.97;;;;;;;14.82;66.58;100276.91;4984324;28;123652;-63
2023/11/14 06:22:21;;;;;;;25.77;4.07;;;;;;;14.80;66.51;100282.31;4980839;28;124397;-63
2023/11/14 06:24:48;;;;;;;30.65;4.38;;;;;;;14.80;66.64;100285.00;4975045;28;109103;-63
2023/11/14 06:27:16;;;;;;;25.83;4.20;;;;;;;14.79;66.58;100293.97;4984089;28;108972;-63
2023/11/14 06:29:43;;;;;;;25.08;3.88;;;;;;;14.77;66.55;100290.56;4983472;28;123895;-64
2023/11/14 06:32:10;;;;;;;26.17;3.92;;;;;;;14.75;66.62;100287.16;4981553;28;124642;-63
2023/11/14 06:34:39;;;;;;;29.60;3.75;;;;;;;14.72;66.65;100304.22;4981565;28;109092;-64
2023/11/14 06:37:06;;;;;;;29.02;4.10;;;;;;;14.72;66.70;100292.69;4978227;28;108202;-63
2023/11/14 06:39:33;;;;;;;28.40;4.30;;;;;;;14.69;66.60;100291.13;4985483;28;124448;-64
2023/11/14 06:42:02;;;;;;;25.10;3.97;;;;;;;14.70;66.71;100307.94;4981606;28;123754;-63
2023/11/14 06:44:29;;;;;;;28.08;4.28;;;;;;;14.67;66.63;100306.34;4979193;28;109385;-64
2023/11/14 06:46:56;;;;;;;30.48;4.47;;;;;;;14.67;66.69;100309.00;4986649;28;109287;-63
2023/11/14 06:49:23;;;;;;;24.02;4.40;;;;;;;14.68;66.67;100307.22;4974367;28;123835;-63
2023/11/14 06:51:51;;;;;;;26.08;4.32;;;;;;;14.68;66.63;100307.22;4978305;28;123100;-64
2023/11/14 06:54:18;;;;;;;19.85;3.83;;;;;;;14.69;66.63;100308.91;4983971;28;107969;-64
2023/11/14 06:56:46;;;;;;;21.58;4.07;;;;;;;14.70;66.64;100321.28;4976492;28;109093;-64
2023/11/14 06:59:13;;;;;;;20.48;4.15;;;;;;;14.70;66.54;100315.94;4984098;28;125092;-64
2023/11/14 07:01:42;;;;;;;37.80;4.72;;;;;;;14.69;66.60;100320.44;4975504;28;123746;-64
2023/11/14 07:04:12;;;;;;;18.83;4.18;;;;;;;14.70;66.54;100315.94;4976516;28;110185;-63
2023/11/14 07:06:39;;;;;;;19.10;3.40;;;;;;;14.71;66.60;100322.97;4982580;28;109825;-64
2023/11/14 07:09:06;;;;;;;22.77;3.65;;;;;;;14.70;66.90;100323.94;4975480;28;124041;-64
2023/11/14 07:11:34;;;;;;;16.00;3.20;;;;;;;14.71;66.74;100322.97;4982285;28;122844;-64
2023/11/14 07:14:01;;;;;;;22.48;3.10;;;;;;;14.73;66.63;100310.38;4982945;28;109358;-64
2023/11/14 07:16:28;;;;;;;24.23;3.60;;;;;;;14.73;66.85;100315.72;4980357;28;109018;-64
2023/11/14 07:18:56;;;;;;;23.55;3.63;;;;;;;14.74;66.66;100322.75;4982209;28;124450;-63
2023/11/14 07:21:23;;;;;;;25.95;3.88;;;;;;;14.74;66.73;100330.75;4986046;28;124019;-63
2023/11/14 07:23:51;;;;;;;19.95;3.72;;;;;;;14.76;66.54;100331.50;4988139;28;110247;-63
2023/11/14 07:26:19;;;;;;;24.80;3.53;;;;;;;14.77;66.48;100330.56;4978934;28;109174;-63
2023/11/14 07:28:47;;;;;;;30.52;4.07;;;;;;;14.76;66.59;100320.84;4979584;28;124223;-64
2023/11/14 07:31:14;;;;;;;26.67;3.58;;;;;;;14.77;66.67;100333.22;4979715;28;124274;-63
2023/11/14 07:33:41;;;;;;;19.40;3.65;;;;;;;14.78;66.66;100324.25;4984141;28;109282;-63
2023/11/14 07:36:08;;;;;;;25.85;3.58;;;;;;;14.78;66.41;100335.75;4984107;28;109298;-63
2023/11/14 07:38:36;;;;;;;25.02;3.63;;;;;;;14.79;66.68;100342.81;4981056;28;124748;-63
2023/11/14 07:41:06;;;;;;;25.65;4.47;;;;;;;14.80;66.65;100343.66;4987823;28;123604;-63
2023/11/14 07:43:34;;;;;;;27.90;4.05;;;;;;;14.82;66.52;100340.88;4977752;28;109560;-63
2023/11/14 07:46:03;;;;;;;21.13;3.90;;;;;;;14.84;66.61;100323.81;4991333;28;109078;-63
2023/11/14 07:48:31;;;;;;;23.98;3.92;;;;;;;14.85;66.50;100322.84;4975483;28;123913;-64
2023/11/14 07:50:59;;;;;;;25.80;3.47;;;;;;;14.85;66.59;100317.53;4984120;28;124523;-63
2023/11/14 07:53:27;;;;;;;18.52;2.88;;;;;;;14.86;66.71;100327.25;4979713;28;110730;-63
2023/11/14 07:55:54;;;;;;;24.30;3.25;;;;;;;14.88;66.47;100311.97;4985003;28;110275;-63
2023/11/14 07:58:25;;;;;;;19.83;3.13;;;;;;;14.88;66.53;100322.66;4987224;28;124403;-63
2023/11/14 08:00:52;;;;;;;22.27;3.42;;;;;;;14.89;66.58;100320.81;4976814;28;124816;-64
2023/11/14 08:03:19;;;;;;;21.45;3.45;;;;;;;14.90;66.72;100318.06;4976531;28;109330;-63
2023/11/14 08:05:47;;;;;;;18.75;3.30;;;;;;;14.91;66.56;100309.06;4980527;28;108829;-64
2023/11/14 08:08:17;;;;;;;20.27;3.40;;;;;;;14.92;66.46;100305.47;4978389;28;123847;-64
2023/11/14 08:10:45;;;;;;;24.33;3.97;;;;;;;14.92;66.65;100310.78;4972042;28;124729;-64
2023/11/14 08:13:12;;;;;;;26.65;3.95;;;;;;;14.94;66.55;100313.34;4975113;28;109638;-63
2023/11/14 08:15:39;;;;;;;20.77;3.47;;;;;;;14.92;66.45;100321.47;4973795;28;108983;-63
2023/11/14 08:18:06;;;;;;;18.42;3.05;;;;;;;14.91;66.55;100325.06;4973542;28;123869;-63
2023/11/14 08:20:34;;;;;;;17.58;3.40;;;;;;;14.93;66.55;100315.16;4977911;28;123937;-63
2023/11/14 08:23:01;;;;;;;26.65;3.40;;;;;;;14.92;66.52;100316.13;4979340;28;109363;-63
2023/11/14 08:25:31;;;;;;;17.70;3.33;;;;;;;14.93;66.63;100314.31;4983097;28;108861;-64
2023/11/14 08:27:58;;;;;;;19.73;3.28;;;;;;;14.94;66.65;100319.53;4981913;28;123156;-63
2023/11/14 08:30:27;;;;;;;19.05;2.70;;;;;;;14.95;66.71;100318.56;4976027;28;123745;-63
2023/11/14 08:32:55;;;;;;;16.70;3.33;;;;;;;14.98;66.81;100317.50;4990201;28;108818;-64
2023/11/14 08:35:25;;;;;;;19.65;3.65;;;;;;;15.02;66.59;100320.81;4979327;28;107811;-63
2023/11/14 08:37:53;;;;;;;23.85;3.83;;;;;;;15.04;66.81;100313.53;4973031;28;125491;-63
2023/11/14 08:40:23;;;;;;;19.35;3.38;;;;;;;15.06;66.74;100316.94;4983626;28;122953;-63
2023/11/14 08:42:51;;;;;;;16.73;3.67;;;;;;;15.08;66.50;100331.03;4973337;28;110352;-63
2023/11/14 08:45:19;;;;;;;18.35;3.25;;;;;;;15.12;66.68;100327.16;4981095;28;109887;-64
2023/11/14 08:47:47;;;;;;;22.88;3.70;;;;;;;15.13;66.51;100323.53;4986864;28;124324;-63
2023/11/14 08:50:16;;;;;;;18.17;3.15;;;;;;;15.14;66.47;100309.22;4982313;28;124317;-63
2023/11/14 08:52:44;;;;;;;25.17;4.18;;;;;;;15.16;66.51;100315.28;4973388;28;107990;-63
2023/11/14 08:55:11;;;;;;;18.52;3.47;;;;;;;15.19;66.43;100313.25;4973591;28;108593;-63
2023/11/14 08:57:38;;;;;;;18.23;3.55;;;;;;;15.23;66.69;100319.22;4982043;28;124927;-64
2023/11/14 09:00:10;;;;;;;23.45;3.55;;;;;;;15.26;66.39;100319.00;4989446;28;124871;-63
2023/11/14 09:02:37;;;;;;;19.23;3.67;;;;;;;15.29;66.32;100318.78;4979637;28;108144;-64
2023/11/14 09:05:09;;;;;;;19.83;3.75;;;;;;;15.33;66.44;100314.06;4983623;28;108066;-63
2023/11/14 09:07:37;;;;;;;20.95;4.03;;;;;;;15.36;66.41;100322.69;4984248;28;124518;-63
2023/11/14 09:10:05;;;;;;;23.15;3.85;;;;;;;15.40;66.34;100311.81;4985333;28;124467;-63
2023/11/14 09:12:33;;;;;;;20.55;3.50;;;;;;;15.44;66.29;100332.81;4972132;28;111172;-63
2023/11/14 09:15:00;;;;;;;23.20;3.53;;;;;;;15.49;66.19;100340.50;4987526;28;109182;-63
2023/11/14 09:17:27;;;;;;;18.25;3.58;;;;;;;15.52;66.07;100340.25;4972158;28;126737;-63
2023/11/14 09:19:56;;;;;;;24.70;3.80;;;;;;;15.55;66.12;100329.34;4988664;28;124062;-63
2023/11/14 09:22:30;;;;;;;27.00;4.53;;;;;;;15.58;66.18;100334.47;4987912;28;109093;-63
2023/11/14 09:24:57;;;;;;;23.83;4.10;;;;;;;15.61;66.14;100339.56;4982191;28;108994;-63
2023/11/14 09:27:25;;;;;;;20.40;4.10;;;;;;;15.64;65.86;100334.00;4983089;28;123999;-63
2023/11/14 09:29:53;;;;;;;33.85;4.38;;;;;;;15.67;66.14;100339.13;4979866;28;124708;-63
2023/11/14 09:32:22;;;;;;;23.30;4.15;;;;;;;15.70;65.84;100344.22;4982370;28;111456;-63
2023/11/14 09:34:50;;;;;;;20.55;3.83;;;;;;;15.72;65.79;100336.94;4988291;28;110302;-63
2023/11/14 09:37:18;;;;;;;17.20;3.67;;;;;;;15.74;65.75;100340.38;4979626;28;124534;-64
2023/11/14 09:39:46;;;;;;;20.92;4.28;;;;;;;15.76;65.63;100351.84;4975465;28;123762;-63
2023/11/14 09:42:14;;;;;;;23.88;4.00;;;;;;;15.80;65.73;100343.56;4980682;28;109460;-63
2023/11/14 09:44:41;;;;;;;22.25;4.55;;;;;;;15.84;65.77;100350.38;4975309;28;108759;-63
2023/11/14 09:47:10;;;;;;;21.77;3.67;;;;;;;15.87;65.76;100355.50;4990695;28;124093;-63
2023/11/14 09:49:42;;;;;;;16.42;3.63;;;;;;;15.92;65.47;100348.84;4977455;28;124586;-64
2023/11/14 09:52:12;;;;;;;22.98;4.38;;;;;;;15.94;65.47;100351.41;4980886;28;108060;-63
2023/11/14 09:54:40;;;;;;;28.35;4.20;;;;;;;15.99;65.36;100362.56;4976084;28;109314;-63
2023/11/14 09:57:11;;;;;;;24.13;4.13;;;;;;;16.01;65.07;100358.00;4977832;28;123831;-63
2023/11/14 09:59:41;;;;;;;25.23;4.10;;;;;;;16.03;65.24;100361.41;4971847;28;123585;-63
2023/11/14 10:02:10;;;;;;;18.55;3.70;;;;;;;16.07;65.13;100362.03;4972864;28;109299;-63
2023/11/14 10:04:39;;;;;;;26.77;4.13;;;;;;;16.10;65.04;100367.94;4987850;28;107958;-63
2023/11/14 10:07:09;;;;;;;23.85;4.05;;;;;;;16.12;65.24;100363.38;4974127;28;124135;-63
2023/11/14 10:09:39;;;;;;;17.27;3.80;;;;;;;16.17;64.99;100359.50;4979378;28;124079;-63
2023/11/14 10:12:08;;;;;;;21.88;3.50;;;;;;;16.23;65.23;100364.38;4984722;28;108217;-63
2023/11/14 10:14:45;;;;;;;29.33;4.22;;;;;;;16.26;65.13;100356.97;4976118;28;109399;-63
2023/11/14 10:17:16;;;;;;;21.73;3.78;;;;;;;16.32;65.05;100355.63;4979464;28;123737;-64
2023/11/14 10:19:56;;;;;;;22.95;3.78;;;;;;;16.33;64.74;100351.97;4979471;28;124109;-63
2023/11/14 10:22:24;;;;;;;17.42;3.65;;;;;;;16.36;64.75;100365.13;4980940;28;110380;-63
2023/11/14 10:24:52;;;;;;;28.27;4.70;;;;;;;16.40;64.90;100353.22;4978892;28;109848;-63
2023/11/14 10:27:33;;;;;;;22.00;3.90;;;;;;;16.42;64.77;100351.28;4983014;28;124432;-62
2023/11/14 10:30:00;;;;;;;18.13;4.07;;;;;;;16.47;64.85;100354.44;4974746;28;123902;-63
2023/11/14 10:32:27;;;;;;;25.98;4.10;;;;;;;16.53;64.85;100353.97;4975377;28;109001;-63
2023/11/14 10:34:55;;;;;;;21.92;3.75;;;;;;;16.60;64.80;100353.50;4983488;28;109100;-63
2023/11/14 10:37:35;;;;;;;18.80;3.70;;;;;;;16.64;64.41;100345.13;4975804;28;124001;-63
2023/11/14 10:40:06;;;;;;;25.48;4.05;;;;;;;16.69;64.23;100347.44;4976259;28;125055;-63
2023/11/14 10:42:34;;;;;;;16.63;3.53;;;;;;;16.73;64.22;100348.91;4981653;28;109371;-63
2023/11/14 10:45:07;;;;;;;17.25;3.55;;;;;;;16.77;64.10;100342.34;4979244;28;108899;-63
2023/11/14 10:47:44;;;;;;;17.40;3.42;;;;;;;16.81;63.98;100341.09;4979882;28;123937;-63
2023/11/14 10:50:29;;;;;;;14.50;3.22;;;;;;;16.85;64.02;100337.25;4986405;28;123926;-63
2023/11/14 10:52:59;;;;;;;14.50;3.60;;;;;;;16.89;64.16;100328.00;4990235;28;108251;-63
2023/11/14 10:55:27;;;;;;;16.85;3.20;;;;;;;16.95;64.09;100325.81;4989590;28;107999;-63
2023/11/14 10:57:55;;;;;;;14.93;2.88;;;;;;;16.99;63.56;100311.22;4979832;28;124188;-63
2023/11/14 11:00:24;;;;;;;9.13;2.55;;;;;;;17.01;63.58;100330.66;4978411;28;123827;-64
2023/11/14 11:02:53;;;;;;;12.10;2.75;;;;;;;17.01;63.25;100319.97;4980590;28;107838;-64
2023/11/14 11:05:21;;;;;;;12.90;2.47;;;;;;;17.03;63.42;100318.03;4985062;28;109047;-64
2023/11/14 11:08:07;;;;;;;12.88;2.90;;;;;;;17.01;63.09;100314.59;4978590;28;124298;-63
2023/11/14 11:10:37;;;;;;;13.18;2.88;;;;;;;16.99;63.14;100311.22;4976874;28;123878;-63
2023/11/14 11:13:16;;;;;;;17.52;2.75;;;;;;;16.98;63.12;100298.81;4983505;28;110501;-63
2023/11/14 11:15:48;;;;;;;14.75;2.90;;;;;;;16.99;63.00;100300.50;4987545;28;109734;-67